createdAt,value
2022-10-14T00:01:25.252Z,10.30
2022-10-14T00:03:53.611Z,10.55
2022-10-14T00:06:24.905Z,10.23
2022-10-14T00:08:53.676Z,10.75
2022-10-14T00:11:24.054Z,11.10
2022-10-14T00:13:55.071Z,11.07
2022-10-14T00:16:26.382Z,10.45
2022-10-14T00:18:54.576Z,9.80
2022-10-14T00:21:23.425Z,9.35
2022-10-14T00:23:51.681Z,10.10
2022-10-14T00:26:23.650Z,10.10
2022-10-14T00:28:52.689Z,10.65
2022-10-14T00:31:21.583Z,9.90
2022-10-14T00:33:51.730Z,10.40
2022-10-14T00:36:22.083Z,10.18
2022-10-14T00:38:50.549Z,10.98
2022-10-14T00:41:22.309Z,10.13
2022-10-14T00:44:00.457Z,10.50
2022-10-14T00:46:31.441Z,11.20
2022-10-14T00:49:08.921Z,11.15
2022-10-14T00:51:39.647Z,11.70
2022-10-14T00:54:08.861Z,11.73
2022-10-14T00:56:37.845Z,11.02
2022-10-14T00:59:12.960Z,10.90
2022-10-14T01:01:41.163Z,11.15
2022-10-14T01:04:10.761Z,11.03
2022-10-14T01:06:45.104Z,11.48
2022-10-14T01:09:22.762Z,12.13
2022-10-14T01:12:27.038Z,11.85
2022-10-14T01:14:59.275Z,11.20
2022-10-14T01:17:37.319Z,10.93
2022-10-14T01:20:44.277Z,12.10
2022-10-14T01:23:44.646Z,12.30
2022-10-14T01:26:34.508Z,11.37
2022-10-14T01:29:17.926Z,11.40
2022-10-14T01:31:59.278Z,11.87
2022-10-14T01:34:33.115Z,11.20
2022-10-14T01:37:05.718Z,11.00
2022-10-14T01:39:39.083Z,11.00
2022-10-14T01:42:11.760Z,10.25
2022-10-14T01:44:43.761Z,10.73
2022-10-14T01:47:16.255Z,10.15
2022-10-14T01:49:48.419Z,10.70
2022-10-14T01:52:22.747Z,9.88
2022-10-14T01:54:54.564Z,10.38
2022-10-14T01:57:34.816Z,10.18
2022-10-14T02:00:04.017Z,10.50
2022-10-14T02:02:43.620Z,10.10
2022-10-14T02:05:19.983Z,9.95
2022-10-14T02:07:53.265Z,11.10
2022-10-14T02:10:34.159Z,11.48
2022-10-14T02:13:13.805Z,10.70
2022-10-14T02:15:51.435Z,11.25
2022-10-14T02:18:26.558Z,11.00
2022-10-14T02:20:59.413Z,11.50
2022-10-14T02:23:31.561Z,10.82
2022-10-14T02:26:01.326Z,11.35
2022-10-14T02:28:32.584Z,11.48
2022-10-14T02:31:06.796Z,11.93
2022-10-14T02:33:41.851Z,12.38
2022-10-14T02:36:13.660Z,10.38
2022-10-14T02:38:43.071Z,11.10
2022-10-14T02:41:17.079Z,10.80
2022-10-14T02:43:46.050Z,12.20
2022-10-14T02:46:14.474Z,11.10
2022-10-14T02:48:44.112Z,11.52
2022-10-14T02:51:12.276Z,11.13
2022-10-14T02:53:40.630Z,10.93
2022-10-14T02:56:09.466Z,11.60
2022-10-14T02:58:38.228Z,11.88
2022-10-14T03:01:06.535Z,11.60
2022-10-14T03:03:35.806Z,12.07
2022-10-14T03:06:06.439Z,12.10
2022-10-14T03:08:35.877Z,12.30
2022-10-14T03:11:06.900Z,10.80
2022-10-14T03:13:36.027Z,11.05
2022-10-14T03:16:04.639Z,11.95
2022-10-14T03:18:34.755Z,11.02
2022-10-14T03:21:11.908Z,11.40
2022-10-14T03:23:43.495Z,11.25
2022-10-14T03:26:14.044Z,10.93
2022-10-14T03:28:45.808Z,11.05
2022-10-14T03:31:28.336Z,11.00
2022-10-14T03:34:22.583Z,11.80
2022-10-14T03:37:00.588Z,11.07
2022-10-14T03:39:29.228Z,10.50
2022-10-14T03:42:04.748Z,11.40
2022-10-14T03:44:41.368Z,10.70
2022-10-14T03:47:19.455Z,11.20
2022-10-14T03:49:48.009Z,11.30
2022-10-14T03:52:46.438Z,10.63
2022-10-14T03:55:23.846Z,11.95
2022-10-14T03:57:53.316Z,11.77
2022-10-14T04:00:22.487Z,12.45
2022-10-14T04:03:03.370Z,10.50
2022-10-14T04:05:37.025Z,11.57
2022-10-14T04:08:12.737Z,11.00
2022-10-14T04:10:46.166Z,12.02
2022-10-14T04:13:16.259Z,10.53
2022-10-14T04:15:44.453Z,12.43
2022-10-14T04:18:18.652Z,12.57
2022-10-14T04:20:49.259Z,11.90
2022-10-14T04:23:21.655Z,12.73
2022-10-14T04:25:54.945Z,11.60
2022-10-14T04:28:24.957Z,12.43
2022-10-14T04:31:06.856Z,12.00
2022-10-14T04:33:46.927Z,11.93
2022-10-14T04:36:21.996Z,12.43
2022-10-14T04:38:52.089Z,12.77
2022-10-14T04:41:20.709Z,12.25
2022-10-14T04:43:50.913Z,11.23
2022-10-14T04:46:26.457Z,12.40
2022-10-14T04:48:54.730Z,12.48
2022-10-14T04:51:26.644Z,11.52
2022-10-14T04:54:34.240Z,12.18
2022-10-14T04:57:03.535Z,11.73
2022-10-14T04:59:31.804Z,12.43
2022-10-14T05:02:17.315Z,12.57
2022-10-14T05:04:51.645Z,11.00
2022-10-14T05:07:20.079Z,11.98
2022-10-14T05:09:56.638Z,11.10
2022-10-14T05:12:41.442Z,11.68
2022-10-14T05:15:11.659Z,12.93
2022-10-14T05:17:51.638Z,11.52
2022-10-14T05:20:25.384Z,12.13
2022-10-14T05:22:56.502Z,12.47
2022-10-14T05:25:26.124Z,11.60
2022-10-14T05:27:54.770Z,12.38
2022-10-14T05:30:23.685Z,12.30
2022-10-14T05:32:53.733Z,13.02
2022-10-14T05:35:40.136Z,12.35
2022-10-14T05:38:12.306Z,11.73
2022-10-14T05:40:44.311Z,12.60
2022-10-14T05:43:12.484Z,12.07
2022-10-14T05:45:44.702Z,11.85
2022-10-14T05:48:13.165Z,12.75
2022-10-14T05:50:42.822Z,11.90
2022-10-14T05:53:15.506Z,12.57
2022-10-14T05:55:49.965Z,12.33
2022-10-14T05:58:20.801Z,13.40
2022-10-14T06:00:49.993Z,12.80
2022-10-14T06:03:20.593Z,12.20
2022-10-14T06:05:48.883Z,10.88
2022-10-14T06:08:17.159Z,10.60
2022-10-14T06:10:46.270Z,10.55
2022-10-14T06:13:15.823Z,10.40
2022-10-14T06:15:47.318Z,10.40
2022-10-14T06:18:15.682Z,10.05
2022-10-14T06:20:44.020Z,10.40
2022-10-14T06:23:12.202Z,9.57
2022-10-14T06:25:40.448Z,9.48
2022-10-14T06:28:08.635Z,10.07
2022-10-14T06:30:38.247Z,9.10
2022-10-14T06:33:06.441Z,8.02
2022-10-14T06:35:34.681Z,8.30
2022-10-14T06:38:04.207Z,8.17
2022-10-14T06:40:32.461Z,8.20
2022-10-14T06:43:00.820Z,7.67
2022-10-14T06:45:29.065Z,7.40
2022-10-14T06:47:59.671Z,7.38
2022-10-14T06:50:28.099Z,7.03
2022-10-14T06:52:56.311Z,6.10
2022-10-14T06:55:24.513Z,6.03
2022-10-14T06:57:53.064Z,5.60
2022-10-14T07:00:21.894Z,5.17
2022-10-14T07:02:50.134Z,4.55
2022-10-14T07:05:19.746Z,4.90
2022-10-14T07:07:47.981Z,4.30
2022-10-14T07:10:16.418Z,4.20
2022-10-14T07:12:44.562Z,4.10
2022-10-14T07:15:12.771Z,4.40
2022-10-14T07:17:41.041Z,4.10
2022-10-14T07:20:10.096Z,4.20
2022-10-14T07:22:39.774Z,3.90
2022-10-14T07:25:10.944Z,4.00
2022-10-14T07:27:39.139Z,3.80
2022-10-14T07:30:09.298Z,3.80
2022-10-14T07:32:39.697Z,4.22
2022-10-14T07:35:08.535Z,4.13
2022-10-14T07:37:36.951Z,3.90
2022-10-14T07:40:07.417Z,3.88
2022-10-14T07:42:35.966Z,4.20
2022-10-14T07:45:04.446Z,3.60
2022-10-14T07:47:33.215Z,3.90
2022-10-14T07:50:02.015Z,3.95
2022-10-14T07:52:30.313Z,3.70
2022-10-14T07:54:58.557Z,3.40
2022-10-14T07:57:29.359Z,3.80
2022-10-14T07:59:57.561Z,3.80
2022-10-14T08:02:25.738Z,3.50
2022-10-14T08:05:13.149Z,3.50
2022-10-14T08:07:45.280Z,3.10
2022-10-14T08:10:13.460Z,3.20
2022-10-14T08:12:43.133Z,3.30
2022-10-14T08:15:11.870Z,2.80
2022-10-14T08:17:40.083Z,3.40
2022-10-14T08:20:09.210Z,2.67
2022-10-14T08:22:37.430Z,3.22
2022-10-14T08:25:06.298Z,2.70
2022-10-14T08:27:34.871Z,3.30
2022-10-14T08:30:10.133Z,3.43
2022-10-14T08:32:39.185Z,2.95
2022-10-14T08:35:08.679Z,3.10
2022-10-14T08:37:37.048Z,3.05
2022-10-14T08:40:07.634Z,3.15
2022-10-14T08:42:44.459Z,2.75
2022-10-14T08:45:19.050Z,2.60
2022-10-14T08:47:48.758Z,2.53
2022-10-14T08:50:29.166Z,2.60
2022-10-14T08:53:04.199Z,2.30
2022-10-14T08:55:37.368Z,2.30
2022-10-14T08:58:13.798Z,2.58
2022-10-14T09:00:46.174Z,1.98
2022-10-14T09:03:21.799Z,2.10
2022-10-14T09:05:57.498Z,2.20
2022-10-14T09:08:32.379Z,2.25
2022-10-14T09:11:01.159Z,2.08
2022-10-14T09:13:35.549Z,2.17
2022-10-14T09:16:10.617Z,2.20
2022-10-14T09:18:43.096Z,1.88
2022-10-14T09:21:40.576Z,2.05
2022-10-14T09:24:14.719Z,1.98
2022-10-14T09:26:45.514Z,2.28
2022-10-14T09:29:25.235Z,2.17
2022-10-14T09:31:57.948Z,2.15
2022-10-14T09:34:31.520Z,1.90
2022-10-14T09:37:11.712Z,2.28
2022-10-14T09:39:41.135Z,1.90
2022-10-14T09:42:19.088Z,1.80
2022-10-14T09:47:59.516Z,1.55
2022-10-14T09:50:33.655Z,1.73
2022-10-14T09:53:08.002Z,1.60
2022-10-14T09:55:40.077Z,1.20
2022-10-14T09:58:15.172Z,1.25
2022-10-14T10:00:43.583Z,1.40
2022-10-14T10:03:26.886Z,1.48
2022-10-14T10:06:06.048Z,1.27
2022-10-14T10:08:35.723Z,1.20
2022-10-14T10:11:06.942Z,1.15
2022-10-14T10:13:41.527Z,1.20
2022-10-14T10:16:20.468Z,1.05
2022-10-14T10:18:50.693Z,1.10
2022-10-14T10:21:24.698Z,0.85
2022-10-14T10:23:56.427Z,1.08
2022-10-14T10:26:32.292Z,1.00
2022-10-14T10:29:02.613Z,1.30
2022-10-14T10:31:53.456Z,0.80
2022-10-14T10:35:06.298Z,1.00
2022-10-14T10:37:45.991Z,0.90
2022-10-14T10:40:33.585Z,0.70
2022-10-14T10:43:38.140Z,0.80
2022-10-14T10:46:19.236Z,0.90
2022-10-14T10:48:50.171Z,0.75
2022-10-14T10:51:28.232Z,0.88
2022-10-14T10:54:16.207Z,0.90
2022-10-14T10:56:49.885Z,1.30
2022-10-14T10:59:36.755Z,1.23
2022-10-14T11:02:52.108Z,1.03
2022-10-14T11:05:30.811Z,0.98
2022-10-14T11:08:30.387Z,0.70
2022-10-14T11:11:27.395Z,0.80
2022-10-14T11:13:59.697Z,0.80
2022-10-14T11:16:35.566Z,0.85
2022-10-14T11:19:14.713Z,0.90
2022-10-14T11:21:46.563Z,0.70
2022-10-14T11:24:25.053Z,0.63
2022-10-14T11:27:11.758Z,0.77
2022-10-14T11:30:06.282Z,0.90
2022-10-14T11:32:43.859Z,0.60
2022-10-14T11:35:26.289Z,0.65
2022-10-14T11:38:06.553Z,0.75
2022-10-14T11:40:40.740Z,0.70
2022-10-14T11:43:23.398Z,0.70
2022-10-14T11:45:57.764Z,0.80
2022-10-14T11:48:31.411Z,0.75
2022-10-14T11:51:11.760Z,0.93
2022-10-14T11:53:50.169Z,0.80
2022-10-14T11:56:30.515Z,0.82
2022-10-14T11:59:16.861Z,1.00
2022-10-14T12:01:49.601Z,1.00
2022-10-14T12:04:25.684Z,1.00
2022-10-14T12:06:59.885Z,1.02
2022-10-14T12:09:39.295Z,1.20
2022-10-14T12:12:11.346Z,1.63
2022-10-14T12:14:44.641Z,3.72
2022-10-14T12:17:21.552Z,8.50
2022-10-14T12:19:51.277Z,1.80
2022-10-14T12:22:22.930Z,1.80
2022-10-14T12:24:53.925Z,1.80
2022-10-14T12:27:24.434Z,2.00
2022-10-14T12:29:56.915Z,2.30
2022-10-14T12:32:27.074Z,2.30
2022-10-14T12:34:56.638Z,2.30
2022-10-14T12:37:52.900Z,2.40
2022-10-14T12:40:27.033Z,2.80
2022-10-14T12:43:05.390Z,2.70
2022-10-14T12:45:36.745Z,2.90
2022-10-14T12:48:15.462Z,3.00
2022-10-14T12:50:46.325Z,3.20
2022-10-14T12:53:24.134Z,3.47
2022-10-14T12:55:54.191Z,3.10
2022-10-14T12:58:30.118Z,2.80
2022-10-14T13:01:04.633Z,3.70
2022-10-14T13:03:36.471Z,3.33
2022-10-14T13:06:39.409Z,3.85
2022-10-14T13:09:41.153Z,4.03
2022-10-14T13:12:42.281Z,3.90
2022-10-14T13:15:59.688Z,3.60
2022-10-14T13:18:51.532Z,3.72
2022-10-14T13:21:51.636Z,3.40
2022-10-14T13:24:26.037Z,3.92
2022-10-14T13:27:09.651Z,3.57
2022-10-14T13:30:01.820Z,3.70
2022-10-14T13:32:38.135Z,3.53
2022-10-14T13:35:17.442Z,3.60
2022-10-14T13:37:54.932Z,3.50
2022-10-14T13:40:27.466Z,3.53
2022-10-14T13:42:58.655Z,3.83
2022-10-14T13:45:35.956Z,3.30
2022-10-14T13:48:06.780Z,3.65
2022-10-14T13:50:39.284Z,3.78
2022-10-14T13:53:13.860Z,3.67
2022-10-14T13:55:48.037Z,3.42
2022-10-14T13:58:21.527Z,3.83
2022-10-14T14:00:59.288Z,4.07
2022-10-14T14:03:31.467Z,3.63
2022-10-14T14:06:02.255Z,4.30
2022-10-14T14:08:41.921Z,3.70
2022-10-14T14:11:18.477Z,4.05
2022-10-14T14:14:01.394Z,3.72
2022-10-14T14:16:36.640Z,4.03
2022-10-14T14:19:09.692Z,3.60
2022-10-14T14:21:40.021Z,3.78
2022-10-14T14:24:18.271Z,3.85
2022-10-14T14:26:55.405Z,4.00
2022-10-14T14:29:28.483Z,3.70
2022-10-14T14:32:07.130Z,3.97
2022-10-14T14:34:37.969Z,3.70
2022-10-14T14:37:34.333Z,4.00
2022-10-14T14:40:02.275Z,3.90
2022-10-14T14:42:35.975Z,3.42
2022-10-14T14:45:07.774Z,3.10
2022-10-14T14:47:36.208Z,3.67
2022-10-14T14:50:28.836Z,3.30
2022-10-14T14:53:00.274Z,3.10
2022-10-14T14:55:41.571Z,3.30
2022-10-14T14:58:25.783Z,3.50
2022-10-14T15:00:55.330Z,3.72
2022-10-14T15:03:26.017Z,3.67
2022-10-14T15:05:58.661Z,4.00
2022-10-14T15:08:31.716Z,3.90
2022-10-14T15:11:01.388Z,3.80
2022-10-14T15:13:33.713Z,3.90
2022-10-14T15:16:03.058Z,4.10
2022-10-14T15:18:31.614Z,3.78
2022-10-14T15:21:18.916Z,3.50
2022-10-14T15:24:03.287Z,4.50
2022-10-14T15:26:34.920Z,3.90
2022-10-14T15:29:18.690Z,3.70
2022-10-14T15:31:49.483Z,4.78
2022-10-14T15:34:23.210Z,5.70
2022-10-14T15:36:54.016Z,5.13
2022-10-14T15:39:23.811Z,6.10
2022-10-14T15:41:52.487Z,18.95
2022-10-14T15:44:20.687Z,16.63
2022-10-14T15:47:06.620Z,10.45
2022-10-14T15:49:39.043Z,6.80
2022-10-14T15:52:07.211Z,7.55
2022-10-14T15:54:36.830Z,5.70
2022-10-14T15:57:05.810Z,5.50
2022-10-14T15:59:36.428Z,6.30
2022-10-14T16:02:05.353Z,6.20
2022-10-14T16:04:34.055Z,6.07
2022-10-14T16:07:02.233Z,6.10
2022-10-14T16:09:30.392Z,6.65
2022-10-14T16:12:02.581Z,4.72
2022-10-14T16:14:30.775Z,4.27
2022-10-14T16:16:58.992Z,3.30
2022-10-14T16:19:27.237Z,4.40
2022-10-14T16:21:55.367Z,4.80
2022-10-14T16:24:26.028Z,4.80
2022-10-14T16:26:55.022Z,6.05
2022-10-14T16:29:24.585Z,4.97
2022-10-14T16:31:55.969Z,4.25
2022-10-14T16:34:24.871Z,6.40
2022-10-14T16:36:53.236Z,20.80
2022-10-14T16:39:21.684Z,15.52
2022-10-14T16:41:50.327Z,14.60
2022-10-14T16:44:27.733Z,10.10
2022-10-14T16:47:17.344Z,9.03
2022-10-14T16:49:47.188Z,11.80
2022-10-14T16:52:16.282Z,11.20
2022-10-14T16:54:44.540Z,7.40
2022-10-14T16:57:12.908Z,7.70
2022-10-14T16:59:41.095Z,6.60
2022-10-14T17:02:14.873Z,5.43
2022-10-14T17:04:46.246Z,4.15
2022-10-14T17:07:17.317Z,4.28
2022-10-14T17:09:45.560Z,4.13
2022-10-14T17:12:14.455Z,4.25
2022-10-14T17:14:43.019Z,3.90
2022-10-14T17:17:13.907Z,4.18
2022-10-14T17:19:42.881Z,3.97
2022-10-14T17:22:11.107Z,4.07
2022-10-14T17:24:39.297Z,4.80
2022-10-14T17:27:10.832Z,4.55
2022-10-14T17:29:39.117Z,4.75
2022-10-14T17:32:07.340Z,4.13
2022-10-14T17:34:37.056Z,3.67
2022-10-14T17:39:41.167Z,4.38
2022-10-14T17:42:09.325Z,5.40
2022-10-14T17:44:43.380Z,4.70
2022-10-14T17:47:12.306Z,4.72
2022-10-14T17:49:41.888Z,5.30
2022-10-14T17:52:10.757Z,4.50
2022-10-14T17:54:38.919Z,5.15
2022-10-14T17:57:07.096Z,4.90
2022-10-14T17:59:35.284Z,5.35
2022-10-14T18:02:04.214Z,5.03
2022-10-14T18:04:33.514Z,6.03
2022-10-14T18:07:03.222Z,5.90
2022-10-14T18:09:31.358Z,5.78
2022-10-14T18:12:14.758Z,6.10
2022-10-14T18:14:43.721Z,6.25
2022-10-14T18:17:13.199Z,6.10
2022-10-14T18:19:42.143Z,6.10
2022-10-14T18:22:12.087Z,6.38
2022-10-14T18:24:40.309Z,6.10
2022-10-14T18:27:08.688Z,5.90
2022-10-14T18:29:36.999Z,5.50
2022-10-14T18:32:05.586Z,5.30
2022-10-14T18:34:34.131Z,5.97
2022-10-14T18:37:02.311Z,6.07
2022-10-14T18:39:31.953Z,5.88
2022-10-14T18:42:00.136Z,5.60
2022-10-14T18:44:29.989Z,6.60
2022-10-14T18:46:58.143Z,6.13
2022-10-14T18:49:26.309Z,6.05
2022-10-14T18:51:55.216Z,6.50
2022-10-14T18:54:24.910Z,5.97
2022-10-14T18:56:54.835Z,6.15
2022-10-14T18:59:24.446Z,6.47
2022-10-14T19:01:53.859Z,6.30
2022-10-14T19:04:24.492Z,6.85
2022-10-14T19:06:52.697Z,6.50
2022-10-14T19:09:24.658Z,6.80
2022-10-14T19:11:54.671Z,6.45
2022-10-14T19:14:22.883Z,6.50
2022-10-14T19:16:51.248Z,6.50
2022-10-14T19:19:20.762Z,6.87
2022-10-14T19:21:54.014Z,6.90
2022-10-14T19:24:22.228Z,6.78
2022-10-14T19:26:50.555Z,6.80
2022-10-14T19:29:20.140Z,7.43
2022-10-14T19:31:51.622Z,7.28
2022-10-14T19:34:19.784Z,7.20
2022-10-14T19:36:47.968Z,6.70
2022-10-14T19:39:18.865Z,6.70
2022-10-14T19:41:47.499Z,7.68
2022-10-14T19:44:17.143Z,7.50
2022-10-14T19:46:46.893Z,7.53
2022-10-14T19:49:16.336Z,7.28
2022-10-14T19:51:44.895Z,8.15
2022-10-14T19:54:14.095Z,7.75
2022-10-14T19:56:42.563Z,7.55
2022-10-14T19:59:13.385Z,8.25
2022-10-14T20:01:41.971Z,8.85
2022-10-14T20:04:11.696Z,8.60
2022-10-14T20:06:40.421Z,8.77
2022-10-14T20:09:09.754Z,8.55
2022-10-14T20:11:38.062Z,9.00
2022-10-14T20:14:06.336Z,8.35
2022-10-14T20:16:34.750Z,8.20
2022-10-14T20:19:04.032Z,8.00
2022-10-14T20:21:33.642Z,8.05
2022-10-14T20:24:01.776Z,8.30
2022-10-14T20:26:30.795Z,7.60
2022-10-14T20:28:59.107Z,8.32
2022-10-14T20:31:27.473Z,8.70
2022-10-14T20:33:57.094Z,8.38
2022-10-14T20:36:25.691Z,8.50
2022-10-14T20:38:55.327Z,8.23
2022-10-14T20:41:25.909Z,8.85
2022-10-14T20:43:56.096Z,8.97
2022-10-14T20:46:25.946Z,8.48
2022-10-14T20:48:58.362Z,8.00
2022-10-14T20:51:26.946Z,8.38
2022-10-14T20:54:03.970Z,8.88
2022-10-14T20:56:33.539Z,8.60
2022-10-14T20:59:03.381Z,7.70
2022-10-14T21:01:32.395Z,7.90
2022-10-14T21:04:04.269Z,7.00
2022-10-14T21:06:32.923Z,7.43
2022-10-14T21:09:04.164Z,8.07
2022-10-14T21:11:32.449Z,7.80
2022-10-14T21:14:03.088Z,8.00
2022-10-14T21:16:34.976Z,7.53
2022-10-14T21:19:07.215Z,8.77
2022-10-14T21:21:37.511Z,7.80
2022-10-14T21:24:08.616Z,8.50
2022-10-14T21:26:36.913Z,8.83
2022-10-14T21:29:05.491Z,8.57
2022-10-14T21:31:33.714Z,8.60
2022-10-14T21:34:06.108Z,8.55
2022-10-14T21:36:35.043Z,8.60
2022-10-14T21:39:07.769Z,8.80
2022-10-14T21:41:36.581Z,9.20
2022-10-14T21:44:05.184Z,9.02
2022-10-14T21:46:35.879Z,8.73
2022-10-14T21:49:04.264Z,8.80
2022-10-14T21:51:33.799Z,8.60
2022-10-14T21:54:01.949Z,8.55
2022-10-14T21:56:31.782Z,8.13
2022-10-14T21:58:59.970Z,8.57
2022-10-14T22:01:30.627Z,9.40
2022-10-14T22:04:00.818Z,8.80
2022-10-14T22:06:29.517Z,9.50
2022-10-14T22:08:59.378Z,9.27
2022-10-14T22:11:32.207Z,8.50
2022-10-14T22:14:02.048Z,9.45
2022-10-14T22:16:30.761Z,9.57
2022-10-14T22:19:01.919Z,9.60
2022-10-14T22:21:31.447Z,8.32
2022-10-14T22:24:00.045Z,9.38
2022-10-14T22:26:30.152Z,8.90
2022-10-14T22:29:01.479Z,9.45
2022-10-14T22:31:32.925Z,9.32
2022-10-14T22:34:01.794Z,9.48
2022-10-14T22:36:31.284Z,10.38
2022-10-14T22:39:01.402Z,9.50
2022-10-14T22:41:35.197Z,9.50
2022-10-14T22:44:08.580Z,10.33
2022-10-14T22:46:38.412Z,10.20
2022-10-14T22:49:06.863Z,9.90
2022-10-14T22:51:37.447Z,9.80
2022-10-14T22:54:06.036Z,9.52
2022-10-14T22:56:34.309Z,9.85
2022-10-14T22:59:05.225Z,9.03
2022-10-14T23:01:35.493Z,9.70
2022-10-14T23:04:04.227Z,8.10
2022-10-14T23:06:32.723Z,8.90
2022-10-14T23:09:01.448Z,8.30
2022-10-14T23:11:31.739Z,8.32
2022-10-14T23:14:02.848Z,8.00
2022-10-14T23:16:36.156Z,8.10
2022-10-14T23:19:04.502Z,7.53
2022-10-14T23:21:33.944Z,8.23
2022-10-14T23:24:04.927Z,8.00
2022-10-14T23:26:34.500Z,7.80
2022-10-14T23:29:04.392Z,7.78
2022-10-14T23:31:35.870Z,8.02
2022-10-14T23:34:07.355Z,7.53
2022-10-14T23:36:35.601Z,7.43
2022-10-14T23:39:04.329Z,7.88
2022-10-14T23:41:32.609Z,7.75
2022-10-14T23:44:00.765Z,7.60
2022-10-14T23:46:30.065Z,7.82
2022-10-14T23:49:07.263Z,8.20
2022-10-14T23:51:42.366Z,8.20
2022-10-14T23:54:10.573Z,7.72
2022-10-14T23:56:38.714Z,8.75
2022-10-14T23:59:06.875Z,8.52
